createdAt,value
2023-05-19T09:32:00.000Z,0.153320
2023-05-19T09:32:20.000Z,0.090820
2023-05-19T09:32:41.000Z,0.090820
2023-05-19T09:33:00.000Z,2.005859
2023-05-19T09:40:42.000Z,1.241211
2023-05-19T09:41:02.000Z,0.512695
2023-05-19T09:41:22.000Z,0.107422
2023-05-19T09:41:32.000Z,1.634766
2023-05-19T09:50:21.000Z,0.231445
2023-05-19T09:50:41.000Z,1.725586
2023-05-19T09:51:02.000Z,8.386719
2023-05-19T09:51:22.000Z,12.858398
2023-05-19T09:51:42.000Z,15.228516
2023-05-19T09:52:02.000Z,5.781250
2023-05-19T09:52:23.000Z,12.557617
2023-05-19T09:52:43.000Z,18.652344
2023-05-19T09:53:03.000Z,13.122070
2023-05-19T09:53:23.000Z,13.165039
2023-05-19T09:53:44.000Z,17.615234
2023-05-19T09:54:04.000Z,14.942383
2023-05-19T09:54:24.000Z,18.101562
2023-05-19T09:54:45.000Z,11.250977
2023-05-19T09:55:05.000Z,8.037109
2023-05-19T09:55:25.000Z,16.113281
2023-05-19T09:55:45.000Z,20.087891
2023-05-19T09:56:06.000Z,20.583984
2023-05-19T09:56:26.000Z,17.202148
2023-05-19T09:56:46.000Z,16.922852
2023-05-19T09:57:06.000Z,15.033203
2023-05-19T09:57:27.000Z,12.964844
2023-05-19T09:57:47.000Z,10.891602
2023-05-19T09:58:07.000Z,11.268555
2023-05-19T09:58:28.000Z,14.151367
2023-05-19T09:58:48.000Z,7.591797
2023-05-19T09:59:08.000Z,7.781250
2023-05-19T09:59:28.000Z,17.981445
2023-05-19T09:59:49.000Z,18.165039
2023-05-19T10:00:09.000Z,16.856445
2023-05-19T10:00:29.000Z,16.723633
2023-05-19T10:00:49.000Z,16.303711
2023-05-19T10:01:10.000Z,17.980469
2023-05-19T10:01:30.000Z,16.719727
2023-05-19T10:01:50.000Z,17.564453
2023-05-19T10:02:11.000Z,9.928711
2023-05-19T10:02:31.000Z,1.335938
2023-05-19T10:02:51.000Z,19.975586
2023-05-19T10:03:12.000Z,22.009766
2023-05-19T10:03:32.000Z,9.885742
2023-05-19T10:03:52.000Z,19.470703
2023-05-19T10:04:12.000Z,16.728516
2023-05-19T10:04:33.000Z,16.965820
2023-05-19T10:04:53.000Z,13.534180
2023-05-19T10:05:13.000Z,13.020508
2023-05-19T10:05:34.000Z,17.707031
2023-05-19T10:05:54.000Z,16.646484
2023-05-19T10:06:14.000Z,16.750977
2023-05-19T10:06:34.000Z,15.366211
2023-05-19T10:06:55.000Z,13.833984
2023-05-19T10:07:15.000Z,16.056641
2023-05-19T10:07:35.000Z,5.938477
2023-05-19T10:07:56.000Z,13.833008
2023-05-19T10:08:16.000Z,12.713867
2023-05-19T10:08:36.000Z,11.611328
2023-05-19T10:08:56.000Z,10.694336
2023-05-19T10:09:17.000Z,15.422852
2023-05-19T10:09:37.000Z,5.336914
2023-05-19T10:09:57.000Z,8.318359
2023-05-19T10:10:17.000Z,23.335938
2023-05-19T10:10:38.000Z,21.207031
2023-05-19T10:10:58.000Z,18.265625
2023-05-19T10:11:18.000Z,13.464844
2023-05-19T10:11:38.000Z,12.172852
2023-05-19T10:11:59.000Z,16.025391
2023-05-19T10:12:19.000Z,12.059570
2023-05-19T10:12:39.000Z,12.296875
2023-05-19T10:13:00.000Z,0.645508
2023-05-19T10:13:20.000Z,0.121094
2023-05-19T10:13:40.000Z,0.135742
2023-05-19T10:13:40.000Z,2.094727
2023-05-19T10:21:22.000Z,3.106445
2023-05-19T10:21:42.000Z,11.580078
2023-05-19T10:22:02.000Z,12.629883
2023-05-19T10:22:23.000Z,11.931641
2023-05-19T10:22:43.000Z,10.234375
2023-05-19T10:23:03.000Z,10.625000
2023-05-19T10:23:24.000Z,7.608398
2023-05-19T10:23:44.000Z,9.791992
2023-05-19T10:24:04.000Z,4.120117
2023-05-19T10:24:24.000Z,4.150391
2023-05-19T10:24:45.000Z,0.084961
2023-05-19T10:25:05.000Z,0.068359
2023-05-19T10:25:25.000Z,0.072266
2023-05-19T10:25:33.000Z,1.872070
2023-05-19T10:34:19.000Z,0.218750
2023-05-19T10:34:39.000Z,0.255859
2023-05-19T10:35:00.000Z,0.111328
2023-05-19T10:35:09.000Z,2.025391
2023-05-19T10:36:03.000Z,3.327148
2023-05-19T10:36:24.000Z,6.441406
2023-05-19T10:36:44.000Z,12.332031
2023-05-19T10:37:04.000Z,14.007812
2023-05-19T10:37:25.000Z,21.573242
2023-05-19T10:37:45.000Z,11.309570
2023-05-19T10:38:05.000Z,10.769531
2023-05-19T10:38:25.000Z,4.942383
2023-05-19T10:38:46.000Z,4.257812
2023-05-19T10:39:06.000Z,13.588867
2023-05-19T10:39:26.000Z,15.675781
2023-05-19T10:39:47.000Z,14.470703
2023-05-19T10:40:07.000Z,16.666992
2023-05-19T10:40:27.000Z,14.637695
2023-05-19T10:40:47.000Z,15.985352
2023-05-19T10:41:08.000Z,3.811523
2023-05-19T10:41:28.000Z,1.660156
2023-05-19T10:41:48.000Z,15.667969
2023-05-19T10:42:08.000Z,13.214844
2023-05-19T10:42:29.000Z,13.148438
2023-05-19T10:42:49.000Z,14.698242
2023-05-19T10:43:09.000Z,11.270508
2023-05-19T10:43:30.000Z,15.546875
2023-05-19T10:43:50.000Z,11.720703
2023-05-19T10:44:10.000Z,9.497070
2023-05-19T10:44:30.000Z,8.917969
2023-05-19T10:44:51.000Z,14.313477
2023-05-19T10:45:11.000Z,13.007812
2023-05-19T10:45:31.000Z,14.040039
2023-05-19T10:45:52.000Z,17.033203
2023-05-19T10:46:12.000Z,7.019531
2023-05-19T10:46:32.000Z,1.723633
2023-05-19T10:46:52.000Z,9.520508
2023-05-19T10:47:13.000Z,18.904297
2023-05-19T10:47:33.000Z,18.246094
2023-05-19T10:47:53.000Z,15.499023
2023-05-19T10:48:13.000Z,14.565430
2023-05-19T10:48:34.000Z,14.952148
2023-05-19T10:48:54.000Z,11.228516
2023-05-19T10:49:14.000Z,16.978516
2023-05-19T10:49:34.000Z,16.503906
2023-05-19T10:49:55.000Z,5.661133
2023-05-19T10:50:15.000Z,12.960938
2023-05-19T10:50:35.000Z,14.178711
2023-05-19T10:50:56.000Z,14.170898
2023-05-19T10:51:16.000Z,17.178711
2023-05-19T10:51:36.000Z,12.652344
2023-05-19T10:51:57.000Z,11.602539
2023-05-19T10:52:17.000Z,14.208984
2023-05-19T10:52:37.000Z,14.485352
2023-05-19T10:52:57.000Z,14.915039
2023-05-19T10:53:18.000Z,14.857422
2023-05-19T10:53:38.000Z,5.411133
2023-05-19T10:53:58.000Z,13.812500
2023-05-19T10:54:18.000Z,14.416016
2023-05-19T10:54:39.000Z,18.254883
2023-05-19T10:54:59.000Z,15.910156
2023-05-19T10:55:19.000Z,14.448242
2023-05-19T10:55:40.000Z,13.604492
2023-05-19T10:56:00.000Z,13.337891
2023-05-19T10:56:20.000Z,10.071289
2023-05-19T10:56:40.000Z,14.886719
2023-05-19T10:57:01.000Z,16.287109
2023-05-19T10:57:21.000Z,16.418945
2023-05-19T10:57:41.000Z,13.086914
2023-05-19T10:58:02.000Z,13.739258
2023-05-19T10:58:22.000Z,5.470703
2023-05-19T10:58:42.000Z,7.082031
2023-05-19T10:59:02.000Z,13.223633
2023-05-19T10:59:23.000Z,21.734375
2023-05-19T10:59:43.000Z,0.100586
2023-05-19T11:00:03.000Z,0.094727
2023-05-19T11:00:24.000Z,2.172852
2023-05-19T11:00:24.000Z,0.083008
2023-05-19T11:02:21.000Z,20.765625
2023-05-19T11:02:42.000Z,23.039062
2023-05-19T11:03:02.000Z,10.415039
